createdAt,value
2023-02-01T00:05:02.628Z,100548.50
2023-02-01T00:10:08.575Z,100536.88
2023-02-01T00:15:11.546Z,100548.00
2023-02-01T00:20:14.510Z,100544.75
2023-02-01T00:25:18.684Z,100549.38
2023-02-01T00:30:21.906Z,100563.34
2023-02-01T00:35:24.831Z,100551.72
2023-02-01T00:40:29.389Z,100548.66
2023-02-01T00:45:32.199Z,100540.38
2023-02-01T00:50:35.029Z,100532.25
2023-02-01T00:55:39.431Z,100533.13
2023-02-01T01:00:42.752Z,100534.03
2023-02-01T01:05:46.128Z,100529.94
2023-02-01T01:10:50.341Z,100523.81
2023-02-01T01:15:53.278Z,100534.94
2023-02-01T01:20:56.119Z,100524.97
2023-02-01T01:26:00.407Z,100527.78
2023-02-01T01:31:03.255Z,100509.50
2023-02-01T01:36:07.192Z,100516.28
2023-02-01T01:41:15.308Z,100502.69
2023-02-01T01:46:20.536Z,100533.72
2023-02-01T01:51:26.755Z,100512.94
2023-02-01T01:56:34.052Z,100496.28
2023-02-01T02:01:37.449Z,100507.50
2023-02-01T02:06:48.909Z,100488.69
2023-02-01T02:11:53.222Z,100478.41
2023-02-01T02:17:17.662Z,100476.84
2023-02-01T02:22:58.078Z,100471.34
2023-02-01T02:28:13.668Z,100470.84
2023-02-01T02:33:43.967Z,100444.22
2023-02-01T02:38:52.297Z,100445.03
2023-02-01T02:44:17.638Z,100427.56
2023-02-01T02:49:27.150Z,100414.72
2023-02-01T02:54:47.966Z,100416.91
2023-02-01T03:00:10.663Z,100411.81
2023-02-01T03:10:26.860Z,100404.56
2023-02-01T03:15:38.000Z,100406.91
2023-02-01T03:20:45.915Z,100407.72
2023-02-01T03:25:50.907Z,100393.13
2023-02-01T03:30:54.041Z,100390.44
2023-02-01T03:36:08.012Z,100375.28
2023-02-01T03:41:16.450Z,100360.38
2023-02-01T03:46:24.977Z,100343.03
2023-02-01T03:51:31.840Z,100358.56
2023-02-01T03:56:38.721Z,100351.75
2023-02-01T04:01:42.032Z,100356.06
2023-02-01T04:06:46.332Z,100345.06
2023-02-01T04:11:49.249Z,100348.72
2023-02-01T04:16:52.157Z,100333.53
2023-02-01T04:21:56.336Z,100313.34
2023-02-01T04:26:59.137Z,100326.41
2023-02-01T04:32:02.053Z,100325.09
2023-02-01T04:37:06.161Z,100321.03
2023-02-01T04:42:09.539Z,100320.41
2023-02-01T04:47:12.318Z,100329.84
2023-02-01T04:52:16.570Z,100306.19
2023-02-01T04:57:19.387Z,100311.88
2023-02-01T05:02:22.224Z,100297.63
2023-02-01T05:07:26.446Z,100294.19
2023-02-01T05:12:46.670Z,100291.75
2023-02-01T05:17:49.406Z,100282.69
2023-02-01T05:22:53.600Z,100290.13
2023-02-01T05:27:56.604Z,100278.56
2023-02-01T05:32:59.448Z,100301.59
2023-02-01T05:38:03.632Z,100287.13
2023-02-01T05:43:06.399Z,100253.97
2023-02-01T05:48:09.127Z,100249.47
2023-02-01T05:53:13.753Z,100272.25
2023-02-01T05:58:16.429Z,100278.94
2023-02-01T06:03:19.594Z,100237.34
2023-02-01T06:08:25.265Z,100254.47
2023-02-01T06:13:27.963Z,100261.78
2023-02-01T06:18:31.325Z,100251.03
2023-02-01T06:23:35.389Z,100259.06
2023-02-01T06:28:39.471Z,100256.00
2023-02-01T06:33:42.436Z,100256.03
2023-02-01T06:38:46.734Z,100270.22
2023-02-01T06:43:49.527Z,100269.66
2023-02-01T06:48:52.371Z,100282.75
2023-02-01T06:53:56.827Z,100292.03
2023-02-01T06:58:59.666Z,100303.22
2023-02-01T07:04:02.665Z,100285.13
2023-02-01T07:09:07.104Z,100282.97
2023-02-01T07:14:10.099Z,100300.88
2023-02-01T07:19:12.859Z,100293.81
2023-02-01T07:24:16.983Z,100320.06
2023-02-01T07:29:19.821Z,100310.00
2023-02-01T07:34:22.650Z,100314.13
2023-02-01T07:39:29.109Z,100334.28
2023-02-01T07:44:31.893Z,100331.97
2023-02-01T07:49:34.783Z,100357.50
2023-02-01T08:01:28.558Z,100346.66
2023-02-01T08:06:34.761Z,100336.41
2023-02-01T08:11:38.799Z,100339.41
2023-02-01T08:16:42.999Z,100355.75
2023-02-01T08:21:45.854Z,100352.44
2023-02-01T08:26:48.831Z,100358.97
2023-02-01T08:31:53.040Z,100357.91
2023-02-01T08:36:59.347Z,100357.28
2023-02-01T08:42:19.475Z,100341.81
2023-02-01T08:47:23.631Z,100357.44
2023-02-01T08:52:26.647Z,100348.00
2023-02-01T08:57:29.661Z,100355.56
2023-02-01T09:02:33.828Z,100361.97
2023-02-01T09:07:37.566Z,100368.66
2023-02-01T09:12:40.308Z,100375.50
2023-02-01T09:17:44.529Z,100351.78
2023-02-01T09:22:47.381Z,100364.41
2023-02-01T09:27:50.296Z,100343.72
2023-02-01T09:32:54.403Z,100350.69
2023-02-01T09:37:57.547Z,100333.06
2023-02-01T09:43:15.478Z,100346.97
2023-02-01T09:48:23.085Z,100346.22
2023-02-01T09:53:31.218Z,100348.78
2023-02-01T09:58:39.020Z,100359.69
2023-02-01T10:03:43.235Z,100342.13
2023-02-01T10:09:31.800Z,100351.03
2023-02-01T10:14:55.691Z,100335.97
2023-02-01T10:20:09.618Z,100350.09
2023-02-01T10:25:20.961Z,100331.84
2023-02-01T10:30:26.248Z,100339.50
2023-02-01T10:35:37.419Z,100323.94
2023-02-01T10:40:40.521Z,100308.88
2023-02-01T10:45:44.268Z,100339.50
2023-02-01T10:50:53.397Z,100312.59
2023-02-01T10:55:56.995Z,100329.00
2023-02-01T11:01:03.820Z,100313.69
2023-02-01T11:06:19.209Z,100308.50
2023-02-01T11:11:23.179Z,100323.94
2023-02-01T11:16:35.075Z,100284.22
2023-02-01T11:21:39.797Z,100280.13
2023-02-01T11:26:43.470Z,100266.97
2023-02-01T11:31:47.677Z,100295.47
2023-02-01T11:36:54.036Z,100266.94
2023-02-01T11:42:00.975Z,100235.63
2023-02-01T11:47:25.291Z,100221.28
2023-02-01T11:52:50.993Z,100229.66
2023-02-01T11:58:05.428Z,100186.31
2023-02-01T12:03:51.059Z,100220.63
2023-02-01T12:09:11.455Z,100190.41
2023-02-01T12:14:26.952Z,100205.31
2023-02-01T12:19:45.786Z,100187.97
2023-02-01T12:25:22.901Z,100202.78
2023-02-01T12:30:51.493Z,100187.00
2023-02-01T12:36:09.017Z,100152.28
2023-02-01T12:41:29.201Z,100157.97
2023-02-01T12:46:37.394Z,100173.94
2023-02-01T12:51:45.162Z,100175.03
2023-02-01T12:56:56.204Z,100157.47
2023-02-01T13:02:03.851Z,100138.22
2023-02-01T13:07:17.814Z,100137.75
2023-02-01T13:12:26.942Z,100131.25
2023-02-01T13:17:33.173Z,100055.06
2023-02-01T13:22:42.136Z,100117.03
2023-02-01T13:27:48.085Z,100122.19
2023-02-01T13:33:54.642Z,100109.88
2023-02-01T13:38:57.038Z,100079.97
2023-02-01T13:44:05.010Z,100095.72
2023-02-01T13:49:07.900Z,100120.53
2023-02-01T13:54:31.070Z,100101.44
2023-02-01T14:00:10.732Z,100114.59
2023-02-01T14:05:35.674Z,100120.97
2023-02-01T14:10:57.942Z,100123.09
2023-02-01T14:16:19.803Z,100137.13
2023-02-01T14:21:27.417Z,100173.13
2023-02-01T14:26:44.856Z,100171.22
2023-02-01T14:31:57.862Z,100180.47
2023-02-01T14:37:03.672Z,100177.88
2023-02-01T14:42:22.806Z,100196.00
2023-02-01T14:47:35.248Z,100188.06
2023-02-01T14:52:43.368Z,100184.78
2023-02-01T14:57:50.477Z,100201.53
2023-02-01T15:02:56.329Z,100211.66
2023-02-01T15:08:05.227Z,100214.88
2023-02-01T15:13:14.702Z,100199.19
2023-02-01T15:18:19.728Z,100235.38
2023-02-01T15:23:22.490Z,100242.78
2023-02-01T15:28:26.006Z,100237.84
2023-02-01T15:33:31.938Z,100228.97
2023-02-01T15:38:41.343Z,100230.00
2023-02-01T15:43:46.995Z,100244.47
2023-02-01T15:48:54.055Z,100221.34
2023-02-01T15:53:59.547Z,100229.66
2023-02-01T15:59:06.012Z,100239.59
2023-02-01T16:04:18.994Z,100243.50
2023-02-01T16:09:24.732Z,100251.16
2023-02-01T16:14:28.217Z,100245.50
2023-02-01T16:19:32.613Z,100241.13
2023-02-01T16:24:35.384Z,100256.00
2023-02-01T16:29:38.170Z,100249.78
2023-02-01T16:34:43.990Z,100311.25
2023-02-01T16:39:46.888Z,100288.97
2023-02-01T16:44:49.657Z,100306.69
2023-02-01T16:49:53.961Z,100313.75
2023-02-01T16:54:56.858Z,100320.69
2023-02-01T17:00:08.765Z,100332.78
2023-02-01T17:05:18.767Z,100318.22
2023-02-01T17:10:34.382Z,100312.72
2023-02-01T17:15:37.621Z,100320.38
2023-02-01T17:20:41.792Z,100329.56
2023-02-01T17:25:44.961Z,100325.97
2023-02-01T17:30:48.247Z,100323.81
2023-02-01T17:35:52.821Z,100336.03
2023-02-01T17:40:55.672Z,100334.72
2023-02-01T17:46:02.505Z,100347.72
2023-02-01T17:51:10.844Z,100333.25
2023-02-01T17:56:16.686Z,100344.28
2023-02-01T18:01:21.221Z,100342.53
2023-02-01T18:06:27.467Z,100341.63
2023-02-01T18:11:32.955Z,100356.72
2023-02-01T18:16:37.105Z,100343.66
2023-02-01T18:21:44.162Z,100352.03
2023-02-01T18:26:46.945Z,100351.41
2023-02-01T18:31:50.845Z,100350.84
2023-02-01T18:36:55.069Z,100352.59
2023-02-01T18:41:57.885Z,100368.09
2023-02-01T18:47:00.726Z,100359.47
2023-02-01T18:52:05.982Z,100365.94
2023-02-01T18:57:09.382Z,100371.09
2023-02-01T19:02:14.865Z,100380.34
2023-02-01T19:07:19.139Z,100391.75
2023-02-01T19:12:21.989Z,100390.97
2023-02-01T19:17:24.737Z,100406.97
2023-02-01T19:22:28.911Z,100411.03
2023-02-01T19:27:31.746Z,100403.88
2023-02-01T19:32:34.655Z,100394.88
2023-02-01T19:37:41.280Z,100405.47
2023-02-01T19:42:44.702Z,100405.91
2023-02-01T19:47:47.519Z,100398.59
2023-02-01T19:52:51.634Z,100407.88
2023-02-01T19:57:54.463Z,100405.06
2023-02-01T20:02:56.481Z,100411.53
2023-02-01T20:08:01.025Z,100399.25
2023-02-01T20:13:03.834Z,100412.88
2023-02-01T20:18:06.808Z,100417.91
2023-02-01T20:23:11.126Z,100433.09
2023-02-01T20:28:14.942Z,100418.75
2023-02-01T20:33:18.671Z,100437.06
2023-02-01T20:38:22.883Z,100428.94
2023-02-01T20:43:25.722Z,100434.50
2023-02-01T20:48:30.558Z,100439.16
2023-02-01T20:53:34.723Z,100449.06
2023-02-01T20:58:37.510Z,100444.59
2023-02-01T21:03:40.659Z,100441.47
2023-02-01T21:08:44.800Z,100441.16
2023-02-01T21:13:51.420Z,100448.59
2023-02-01T21:18:54.557Z,100456.59
2023-02-01T21:23:59.248Z,100448.28
2023-02-01T21:29:02.090Z,100458.69
2023-02-01T21:34:06.733Z,100464.38
2023-02-01T21:39:12.135Z,100456.84
2023-02-01T21:44:15.145Z,100466.09
2023-02-01T21:49:18.291Z,100468.84
2023-02-01T21:54:22.746Z,100466.13
2023-02-01T21:59:25.487Z,100461.91
2023-02-01T22:04:28.242Z,100472.09
2023-02-01T22:09:32.419Z,100475.03
2023-02-01T22:14:35.420Z,100480.72
2023-02-01T22:19:38.190Z,100478.31
2023-02-01T22:24:42.319Z,100496.47
2023-02-01T22:29:46.206Z,100500.94
2023-02-01T22:34:48.939Z,100507.56
2023-02-01T22:39:54.318Z,100503.41
2023-02-01T22:44:57.092Z,100523.97
2023-02-01T22:49:59.959Z,100537.09
2023-02-01T22:55:04.223Z,100538.59
2023-02-01T23:00:09.556Z,100533.88
2023-02-01T23:05:12.334Z,100545.31
2023-02-01T23:10:18.033Z,100559.00
2023-02-01T23:15:20.839Z,100545.78
2023-02-01T23:20:24.000Z,100545.19
2023-02-01T23:25:28.196Z,100559.28
2023-02-01T23:30:31.044Z,100562.25
2023-02-01T23:35:33.873Z,100565.47
2023-02-01T23:40:37.996Z,100572.44
2023-02-01T23:45:40.783Z,100564.59
2023-02-01T23:50:43.562Z,100580.28
2023-02-01T23:55:47.685Z,100584.97
